Serafina Correa, Brazil
Current Conditions -  °F | °C
As of 12:00 AM on Monday 22 Dec 2014 (Local Time) from SBCO Reporting Station
Broken Clouds Broken Clouds  
Wind Chill: 70°   Ceiling: 6800
Heat Index: 70°   Visibility: 6mi
Dew Point: 70°   Wind: 6mph
Humidity: 100%   Direction: 310°NW
Pressure: 29.71"   Gusts: NA
Location:  28.71°S, 51.93°W
Report Text: SBCO 220200Z 31005KT 9999 SCT025 BKN068 BKN100 21/21 Q1006
Loading
Personal Weather Stations






























Interactive Weather Map New forecast layout! Learn more

10-Day Weather Forecast

Advertisements
Track Severe Weather on mobile